sensor_id;sensor_type;location;lat;lon;timestamp;P1;durP1;ratioP1;P2;durP2;ratioP2
10045;SDS011;5063;50.878;4.742;2023-08-21T00:01:09;5.17;;;2.30;;
10045;SDS011;5063;50.878;4.742;2023-08-21T00:03:35;9.05;;;2.95;;
10045;SDS011;5063;50.878;4.742;2023-08-21T00:06:00;4.43;;;2.30;;
10045;SDS011;5063;50.878;4.742;2023-08-21T00:08:26;5.32;;;2.35;;
10045;SDS011;5063;50.878;4.742;2023-08-21T00:10:52;5.30;;;2.15;;
10045;SDS011;5063;50.878;4.742;2023-08-21T00:13:17;5.97;;;2.53;;
10045;SDS011;5063;50.878;4.742;2023-08-21T00:15:44;5.15;;;2.60;;
10045;SDS011;5063;50.878;4.742;2023-08-21T00:18:09;5.97;;;2.57;;
10045;SDS011;5063;50.878;4.742;2023-08-21T00:20:35;6.20;;;2.50;;
10045;SDS011;5063;50.878;4.742;2023-08-21T00:23:01;5.18;;;2.53;;
10045;SDS011;5063;50.878;4.742;2023-08-21T00:25:27;6.87;;;2.97;;
10045;SDS011;5063;50.878;4.742;2023-08-21T00:27:53;4.67;;;2.53;;
10045;SDS011;5063;50.878;4.742;2023-08-21T00:30:18;5.90;;;3.05;;
10045;SDS011;5063;50.878;4.742;2023-08-21T00:32:44;5.53;;;2.37;;
10045;SDS011;5063;50.878;4.742;2023-08-21T00:35:10;5.00;;;2.47;;
10045;SDS011;5063;50.878;4.742;2023-08-21T00:37:36;4.13;;;2.30;;
10045;SDS011;5063;50.878;4.742;2023-08-21T00:40:02;7.53;;;2.50;;
10045;SDS011;5063;50.878;4.742;2023-08-21T00:42:28;3.28;;;2.30;;
10045;SDS011;5063;50.878;4.742;2023-08-21T00:44:53;9.00;;;2.90;;
10045;SDS011;5063;50.878;4.742;2023-08-21T00:47:19;5.03;;;2.15;;
10045;SDS011;5063;50.878;4.742;2023-08-21T00:49:45;9.67;;;2.63;;
10045;SDS011;5063;50.878;4.742;2023-08-21T00:52:12;5.65;;;2.75;;
10045;SDS011;5063;50.878;4.742;2023-08-21T00:54:39;3.57;;;2.30;;
10045;SDS011;5063;50.878;4.742;2023-08-21T00:57:05;8.18;;;2.83;;
10045;SDS011;5063;50.878;4.742;2023-08-21T00:59:31;5.97;;;2.80;;
10045;SDS011;5063;50.878;4.742;2023-08-21T01:01:57;7.03;;;2.43;;
10045;SDS011;5063;50.878;4.742;2023-08-21T01:04:23;7.13;;;2.75;;
10045;SDS011;5063;50.878;4.742;2023-08-21T01:06:48;2.90;;;1.83;;
10045;SDS011;5063;50.878;4.742;2023-08-21T01:09:31;6.72;;;2.70;;
10045;SDS011;5063;50.878;4.742;2023-08-21T01:15:09;6.30;;;2.53;;
10045;SDS011;5063;50.878;4.742;2023-08-21T01:17:38;4.40;;;2.30;;
10045;SDS011;5063;50.878;4.742;2023-08-21T01:20:06;8.10;;;2.87;;
10045;SDS011;5063;50.878;4.742;2023-08-21T01:22:36;2.90;;;2.30;;
10045;SDS011;5063;50.878;4.742;2023-08-21T01:25:04;6.73;;;2.33;;
10045;SDS011;5063;50.878;4.742;2023-08-21T01:27:30;4.77;;;2.43;;
10045;SDS011;5063;50.878;4.742;2023-08-21T01:29:57;5.00;;;2.80;;
10045;SDS011;5063;50.878;4.742;2023-08-21T01:35:17;5.10;;;2.70;;
10045;SDS011;5063;50.878;4.742;2023-08-21T01:37:45;7.37;;;2.47;;
10045;SDS011;5063;50.878;4.742;2023-08-21T01:40:11;8.47;;;2.60;;
10045;SDS011;5063;50.878;4.742;2023-08-21T01:42:37;8.73;;;2.77;;
10045;SDS011;5063;50.878;4.742;2023-08-21T01:45:02;2.37;;;2.10;;
10045;SDS011;5063;50.878;4.742;2023-08-21T01:47:28;7.03;;;2.77;;
10045;SDS011;5063;50.878;4.742;2023-08-21T01:49:54;4.17;;;2.50;;
10045;SDS011;5063;50.878;4.742;2023-08-21T01:52:20;6.50;;;3.13;;
10045;SDS011;5063;50.878;4.742;2023-08-21T01:54:45;6.80;;;2.57;;
10045;SDS011;5063;50.878;4.742;2023-08-21T01:57:13;6.97;;;2.60;;
10045;SDS011;5063;50.878;4.742;2023-08-21T01:59:39;6.00;;;2.57;;
10045;SDS011;5063;50.878;4.742;2023-08-21T02:02:05;4.90;;;2.20;;
10045;SDS011;5063;50.878;4.742;2023-08-21T02:04:31;6.70;;;2.50;;
10045;SDS011;5063;50.878;4.742;2023-08-21T02:06:56;5.50;;;2.87;;
10045;SDS011;5063;50.878;4.742;2023-08-21T02:09:22;4.90;;;2.53;;
10045;SDS011;5063;50.878;4.742;2023-08-21T02:11:48;4.87;;;2.60;;
10045;SDS011;5063;50.878;4.742;2023-08-21T02:14:14;5.60;;;2.60;;
10045;SDS011;5063;50.878;4.742;2023-08-21T02:16:39;6.77;;;2.80;;
10045;SDS011;5063;50.878;4.742;2023-08-21T02:19:05;8.77;;;2.50;;
10045;SDS011;5063;50.878;4.742;2023-08-21T02:21:31;6.33;;;2.90;;
10045;SDS011;5063;50.878;4.742;2023-08-21T02:23:57;7.80;;;2.53;;
10045;SDS011;5063;50.878;4.742;2023-08-21T02:26:22;7.47;;;3.07;;
10045;SDS011;5063;50.878;4.742;2023-08-21T02:28:48;5.00;;;2.60;;
10045;SDS011;5063;50.878;4.742;2023-08-21T02:31:15;5.93;;;2.40;;
10045;SDS011;5063;50.878;4.742;2023-08-21T02:33:41;7.33;;;3.20;;
10045;SDS011;5063;50.878;4.742;2023-08-21T02:36:06;8.47;;;2.90;;
10045;SDS011;5063;50.878;4.742;2023-08-21T02:38:32;7.63;;;3.07;;
10045;SDS011;5063;50.878;4.742;2023-08-21T02:40:58;4.63;;;2.53;;
10045;SDS011;5063;50.878;4.742;2023-08-21T02:43:23;5.70;;;3.30;;
10045;SDS011;5063;50.878;4.742;2023-08-21T02:45:49;5.33;;;2.30;;
10045;SDS011;5063;50.878;4.742;2023-08-21T02:48:15;6.60;;;2.90;;
10045;SDS011;5063;50.878;4.742;2023-08-21T02:50:41;4.97;;;2.90;;
10045;SDS011;5063;50.878;4.742;2023-08-21T02:53:07;5.63;;;3.10;;
10045;SDS011;5063;50.878;4.742;2023-08-21T02:55:32;4.17;;;2.53;;
10045;SDS011;5063;50.878;4.742;2023-08-21T02:57:58;9.93;;;2.73;;
10045;SDS011;5063;50.878;4.742;2023-08-21T03:00:24;6.20;;;2.70;;
10045;SDS011;5063;50.878;4.742;2023-08-21T03:02:49;4.60;;;2.70;;
10045;SDS011;5063;50.878;4.742;2023-08-21T03:05:15;6.03;;;2.77;;
10045;SDS011;5063;50.878;4.742;2023-08-21T03:07:41;10.00;;;2.73;;
10045;SDS011;5063;50.878;4.742;2023-08-21T03:10:07;3.80;;;2.40;;
10045;SDS011;5063;50.878;4.742;2023-08-21T03:12:33;9.33;;;3.00;;
10045;SDS011;5063;50.878;4.742;2023-08-21T03:14:59;7.80;;;2.63;;
10045;SDS011;5063;50.878;4.742;2023-08-21T03:17:25;7.93;;;2.57;;
10045;SDS011;5063;50.878;4.742;2023-08-21T03:19:50;5.53;;;2.63;;
10045;SDS011;5063;50.878;4.742;2023-08-21T03:22:16;7.97;;;3.07;;
10045;SDS011;5063;50.878;4.742;2023-08-21T03:24:42;6.63;;;3.10;;
10045;SDS011;5063;50.878;4.742;2023-08-21T03:27:07;6.77;;;2.63;;
10045;SDS011;5063;50.878;4.742;2023-08-21T03:29:33;4.17;;;2.73;;
10045;SDS011;5063;50.878;4.742;2023-08-21T03:31:59;5.33;;;2.53;;
10045;SDS011;5063;50.878;4.742;2023-08-21T03:34:25;7.87;;;2.70;;
10045;SDS011;5063;50.878;4.742;2023-08-21T03:36:50;6.07;;;2.40;;
10045;SDS011;5063;50.878;4.742;2023-08-21T03:39:16;5.77;;;2.43;;
10045;SDS011;5063;50.878;4.742;2023-08-21T03:41:42;4.97;;;2.60;;
10045;SDS011;5063;50.878;4.742;2023-08-21T03:44:08;6.37;;;2.70;;
10045;SDS011;5063;50.878;4.742;2023-08-21T03:46:33;7.10;;;2.50;;
10045;SDS011;5063;50.878;4.742;2023-08-21T03:48:59;7.67;;;2.50;;
10045;SDS011;5063;50.878;4.742;2023-08-21T03:51:25;6.17;;;2.60;;
10045;SDS011;5063;50.878;4.742;2023-08-21T03:53:50;5.13;;;2.13;;
10045;SDS011;5063;50.878;4.742;2023-08-21T03:56:16;4.93;;;2.50;;
10045;SDS011;5063;50.878;4.742;2023-08-21T03:58:43;5.47;;;3.07;;
10045;SDS011;5063;50.878;4.742;2023-08-21T04:01:09;5.57;;;2.37;;
10045;SDS011;5063;50.878;4.742;2023-08-21T04:03:35;7.27;;;2.53;;
10045;SDS011;5063;50.878;4.742;2023-08-21T04:06:01;7.80;;;2.77;;
10045;SDS011;5063;50.878;4.742;2023-08-21T04:08:27;3.97;;;2.13;;
10045;SDS011;5063;50.878;4.742;2023-08-21T04:10:52;7.93;;;3.17;;
10045;SDS011;5063;50.878;4.742;2023-08-21T04:13:18;4.17;;;2.43;;
10045;SDS011;5063;50.878;4.742;2023-08-21T04:15:45;4.90;;;2.73;;
10045;SDS011;5063;50.878;4.742;2023-08-21T04:18:11;5.37;;;2.80;;
10045;SDS011;5063;50.878;4.742;2023-08-21T04:20:37;8.27;;;3.37;;
10045;SDS011;5063;50.878;4.742;2023-08-21T04:23:03;9.50;;;5.40;;
10045;SDS011;5063;50.878;4.742;2023-08-21T04:25:29;7.80;;;3.70;;
10045;SDS011;5063;50.878;4.742;2023-08-21T04:27:54;7.47;;;3.10;;
10045;SDS011;5063;50.878;4.742;2023-08-21T04:30:20;4.43;;;3.27;;
10045;SDS011;5063;50.878;4.742;2023-08-21T04:32:47;7.47;;;2.80;;
10045;SDS011;5063;50.878;4.742;2023-08-21T04:35:13;7.90;;;3.77;;
10045;SDS011;5063;50.878;4.742;2023-08-21T04:37:42;4.93;;;2.43;;
10045;SDS011;5063;50.878;4.742;2023-08-21T04:40:11;7.17;;;3.13;;
10045;SDS011;5063;50.878;4.742;2023-08-21T04:42:37;6.93;;;3.40;;
10045;SDS011;5063;50.878;4.742;2023-08-21T04:45:03;4.10;;;2.90;;
10045;SDS011;5063;50.878;4.742;2023-08-21T04:47:30;8.67;;;2.63;;
10045;SDS011;5063;50.878;4.742;2023-08-21T04:49:56;3.73;;;2.47;;
10045;SDS011;5063;50.878;4.742;2023-08-21T04:52:23;7.70;;;2.90;;
10045;SDS011;5063;50.878;4.742;2023-08-21T04:54:50;8.00;;;3.10;;
10045;SDS011;5063;50.878;4.742;2023-08-21T04:57:16;6.47;;;3.00;;
10045;SDS011;5063;50.878;4.742;2023-08-21T04:59:43;5.30;;;2.57;;
10045;SDS011;5063;50.878;4.742;2023-08-21T05:02:09;7.67;;;3.10;;
10045;SDS011;5063;50.878;4.742;2023-08-21T05:04:38;7.53;;;2.87;;
10045;SDS011;5063;50.878;4.742;2023-08-21T05:07:04;9.17;;;2.87;;
10045;SDS011;5063;50.878;4.742;2023-08-21T05:09:30;5.53;;;2.80;;
10045;SDS011;5063;50.878;4.742;2023-08-21T05:11:56;7.20;;;3.47;;
10045;SDS011;5063;50.878;4.742;2023-08-21T05:14:22;9.07;;;3.37;;
10045;SDS011;5063;50.878;4.742;2023-08-21T05:16:48;7.23;;;3.17;;
10045;SDS011;5063;50.878;4.742;2023-08-21T05:19:14;6.77;;;3.30;;
10045;SDS011;5063;50.878;4.742;2023-08-21T05:21:40;5.07;;;2.70;;
10045;SDS011;5063;50.878;4.742;2023-08-21T05:24:06;4.57;;;2.80;;
10045;SDS011;5063;50.878;4.742;2023-08-21T05:26:32;4.37;;;2.60;;
10045;SDS011;5063;50.878;4.742;2023-08-21T05:28:57;5.80;;;3.07;;
10045;SDS011;5063;50.878;4.742;2023-08-21T05:31:23;9.20;;;3.13;;
10045;SDS011;5063;50.878;4.742;2023-08-21T05:33:49;5.17;;;3.53;;
10045;SDS011;5063;50.878;4.742;2023-08-21T05:36:14;7.47;;;3.23;;
10045;SDS011;5063;50.878;4.742;2023-08-21T05:38:40;7.43;;;3.00;;
10045;SDS011;5063;50.878;4.742;2023-08-21T05:41:06;6.90;;;3.33;;
10045;SDS011;5063;50.878;4.742;2023-08-21T05:43:31;6.40;;;3.03;;
10045;SDS011;5063;50.878;4.742;2023-08-21T05:45:59;6.33;;;3.60;;
10045;SDS011;5063;50.878;4.742;2023-08-21T05:48:25;6.07;;;3.37;;
10045;SDS011;5063;50.878;4.742;2023-08-21T05:50:51;5.77;;;3.13;;
10045;SDS011;5063;50.878;4.742;2023-08-21T05:53:17;7.90;;;3.20;;
10045;SDS011;5063;50.878;4.742;2023-08-21T05:55:42;7.07;;;3.10;;
10045;SDS011;5063;50.878;4.742;2023-08-21T05:58:08;9.33;;;3.77;;
10045;SDS011;5063;50.878;4.742;2023-08-21T06:00:34;4.97;;;3.10;;
10045;SDS011;5063;50.878;4.742;2023-08-21T06:03:00;9.75;;;3.40;;
10045;SDS011;5063;50.878;4.742;2023-08-21T06:05:26;9.65;;;3.70;;
10045;SDS011;5063;50.878;4.742;2023-08-21T06:07:52;7.30;;;3.43;;
10045;SDS011;5063;50.878;4.742;2023-08-21T06:10:18;7.40;;;3.13;;
10045;SDS011;5063;50.878;4.742;2023-08-21T06:12:43;9.00;;;3.25;;
10045;SDS011;5063;50.878;4.742;2023-08-21T06:15:09;7.78;;;2.95;;
10045;SDS011;5063;50.878;4.742;2023-08-21T06:17:38;4.83;;;2.70;;
10045;SDS011;5063;50.878;4.742;2023-08-21T06:20:05;8.27;;;3.38;;
10045;SDS011;5063;50.878;4.742;2023-08-21T06:22:33;5.63;;;2.97;;
10045;SDS011;5063;50.878;4.742;2023-08-21T06:25:00;9.07;;;3.17;;
10045;SDS011;5063;50.878;4.742;2023-08-21T06:27:26;9.25;;;2.20;;
10045;SDS011;5063;50.878;4.742;2023-08-21T06:29:51;7.60;;;2.53;;
10045;SDS011;5063;50.878;4.742;2023-08-21T06:32:17;5.00;;;2.35;;
10045;SDS011;5063;50.878;4.742;2023-08-21T06:34:43;7.60;;;2.15;;
10045;SDS011;5063;50.878;4.742;2023-08-21T06:37:08;8.32;;;2.50;;
10045;SDS011;5063;50.878;4.742;2023-08-21T06:39:34;4.70;;;2.03;;
10045;SDS011;5063;50.878;4.742;2023-08-21T06:42:00;8.45;;;2.22;;
10045;SDS011;5063;50.878;4.742;2023-08-21T06:44:26;4.25;;;2.13;;
10045;SDS011;5063;50.878;4.742;2023-08-21T06:46:52;4.05;;;2.22;;
10045;SDS011;5063;50.878;4.742;2023-08-21T06:49:18;7.50;;;2.00;;
10045;SDS011;5063;50.878;4.742;2023-08-21T06:51:44;5.18;;;2.10;;
10045;SDS011;5063;50.878;4.742;2023-08-21T06:54:09;10.50;;;2.55;;
10045;SDS011;5063;50.878;4.742;2023-08-21T06:56:36;11.23;;;2.80;;
10045;SDS011;5063;50.878;4.742;2023-08-21T06:59:01;5.43;;;2.30;;
10045;SDS011;5063;50.878;4.742;2023-08-21T07:01:27;6.90;;;1.80;;
10045;SDS011;5063;50.878;4.742;2023-08-21T07:03:53;5.00;;;2.10;;
10045;SDS011;5063;50.878;4.742;2023-08-21T07:06:19;5.93;;;2.10;;
10045;SDS011;5063;50.878;4.742;2023-08-21T07:08:45;8.00;;;2.38;;
10045;SDS011;5063;50.878;4.742;2023-08-21T07:11:11;8.25;;;2.28;;
10045;SDS011;5063;50.878;4.742;2023-08-21T07:13:37;7.00;;;2.10;;
10045;SDS011;5063;50.878;4.742;2023-08-21T07:16:03;5.60;;;1.98;;
10045;SDS011;5063;50.878;4.742;2023-08-21T07:18:32;6.60;;;2.00;;
10045;SDS011;5063;50.878;4.742;2023-08-21T07:20:58;6.60;;;2.30;;
10045;SDS011;5063;50.878;4.742;2023-08-21T07:23:24;7.93;;;2.65;;
10045;SDS011;5063;50.878;4.742;2023-08-21T07:25:50;7.43;;;2.58;;
10045;SDS011;5063;50.878;4.742;2023-08-21T07:28:16;5.40;;;2.30;;
10045;SDS011;5063;50.878;4.742;2023-08-21T07:30:42;6.15;;;2.47;;
10045;SDS011;5063;50.878;4.742;2023-08-21T07:33:08;3.10;;;1.75;;
10045;SDS011;5063;50.878;4.742;2023-08-21T07:35:34;4.53;;;2.03;;
10045;SDS011;5063;50.878;4.742;2023-08-21T07:38:01;8.13;;;2.80;;
10045;SDS011;5063;50.878;4.742;2023-08-21T07:40:26;5.28;;;2.20;;
10045;SDS011;5063;50.878;4.742;2023-08-21T07:42:52;4.68;;;2.15;;
10045;SDS011;5063;50.878;4.742;2023-08-21T07:45:18;4.07;;;2.22;;
10045;SDS011;5063;50.878;4.742;2023-08-21T07:47:44;7.82;;;2.22;;
10045;SDS011;5063;50.878;4.742;2023-08-21T07:50:10;5.72;;;2.60;;
10045;SDS011;5063;50.878;4.742;2023-08-21T07:52:36;5.10;;;2.03;;
10045;SDS011;5063;50.878;4.742;2023-08-21T07:55:02;8.13;;;2.20;;
10045;SDS011;5063;50.878;4.742;2023-08-21T07:57:28;7.97;;;2.47;;
10045;SDS011;5063;50.878;4.742;2023-08-21T07:59:55;8.60;;;2.30;;
10045;SDS011;5063;50.878;4.742;2023-08-21T08:02:21;6.38;;;2.38;;
10045;SDS011;5063;50.878;4.742;2023-08-21T08:04:47;6.13;;;2.05;;
10045;SDS011;5063;50.878;4.742;2023-08-21T08:07:13;8.07;;;1.52;;
10045;SDS011;5063;50.878;4.742;2023-08-21T08:09:39;8.32;;;2.35;;
10045;SDS011;5063;50.878;4.742;2023-08-21T08:12:05;4.53;;;2.00;;
10045;SDS011;5063;50.878;4.742;2023-08-21T08:14:31;6.68;;;2.22;;
10045;SDS011;5063;50.878;4.742;2023-08-21T08:16:57;6.15;;;2.25;;
10045;SDS011;5063;50.878;4.742;2023-08-21T08:19:22;5.88;;;2.10;;
10045;SDS011;5063;50.878;4.742;2023-08-21T08:21:48;5.80;;;2.50;;
10045;SDS011;5063;50.878;4.742;2023-08-21T08:24:14;7.38;;;2.78;;
10045;SDS011;5063;50.878;4.742;2023-08-21T08:26:39;6.28;;;2.13;;
10045;SDS011;5063;50.878;4.742;2023-08-21T08:29:07;6.78;;;2.17;;
10045;SDS011;5063;50.878;4.742;2023-08-21T08:31:33;8.82;;;2.38;;
10045;SDS011;5063;50.878;4.742;2023-08-21T08:33:59;5.32;;;2.28;;
10045;SDS011;5063;50.878;4.742;2023-08-21T08:36:24;6.50;;;2.45;;
10045;SDS011;5063;50.878;4.742;2023-08-21T08:38:50;7.55;;;2.25;;
10045;SDS011;5063;50.878;4.742;2023-08-21T08:43:50;6.70;;;1.90;;
10045;SDS011;5063;50.878;4.742;2023-08-21T08:46:16;4.95;;;2.08;;
10045;SDS011;5063;50.878;4.742;2023-08-21T08:48:43;5.72;;;2.08;;
10045;SDS011;5063;50.878;4.742;2023-08-21T08:51:08;8.40;;;2.40;;
10045;SDS011;5063;50.878;4.742;2023-08-21T08:53:35;7.63;;;2.38;;
10045;SDS011;5063;50.878;4.742;2023-08-21T08:56:01;5.13;;;1.90;;
10045;SDS011;5063;50.878;4.742;2023-08-21T08:58:28;4.90;;;2.05;;
10045;SDS011;5063;50.878;4.742;2023-08-21T09:00:54;5.43;;;2.08;;
10045;SDS011;5063;50.878;4.742;2023-08-21T09:03:20;9.55;;;2.53;;
10045;SDS011;5063;50.878;4.742;2023-08-21T09:05:45;3.00;;;1.58;;
10045;SDS011;5063;50.878;4.742;2023-08-21T09:08:13;4.68;;;1.60;;
10045;SDS011;5063;50.878;4.742;2023-08-21T09:10:40;4.45;;;1.80;;
10045;SDS011;5063;50.878;4.742;2023-08-21T09:13:13;6.18;;;1.70;;
10045;SDS011;5063;50.878;4.742;2023-08-21T09:15:42;2.10;;;1.27;;
10045;SDS011;5063;50.878;4.742;2023-08-21T09:18:12;4.32;;;1.77;;
10045;SDS011;5063;50.878;4.742;2023-08-21T09:20:39;5.90;;;2.20;;
10045;SDS011;5063;50.878;4.742;2023-08-21T09:23:05;5.80;;;2.03;;
10045;SDS011;5063;50.878;4.742;2023-08-21T09:25:38;5.07;;;2.15;;
10045;SDS011;5063;50.878;4.742;2023-08-21T09:28:04;5.38;;;2.30;;
10045;SDS011;5063;50.878;4.742;2023-08-21T09:30:53;3.78;;;2.25;;
10045;SDS011;5063;50.878;4.742;2023-08-21T09:33:19;3.63;;;1.83;;
10045;SDS011;5063;50.878;4.742;2023-08-21T09:35:46;5.35;;;2.35;;
10045;SDS011;5063;50.878;4.742;2023-08-21T09:38:13;4.60;;;1.90;;
10045;SDS011;5063;50.878;4.742;2023-08-21T09:40:42;5.15;;;2.00;;
10045;SDS011;5063;50.878;4.742;2023-08-21T09:43:15;5.32;;;1.90;;
10045;SDS011;5063;50.878;4.742;2023-08-21T09:45:41;4.10;;;1.48;;
10045;SDS011;5063;50.878;4.742;2023-08-21T09:48:14;4.13;;;1.50;;
10045;SDS011;5063;50.878;4.742;2023-08-21T09:50:40;4.85;;;2.20;;
10045;SDS011;5063;50.878;4.742;2023-08-21T09:53:06;4.57;;;1.50;;
10045;SDS011;5063;50.878;4.742;2023-08-21T09:55:32;4.63;;;1.40;;
10045;SDS011;5063;50.878;4.742;2023-08-21T09:57:58;4.10;;;1.85;;
10045;SDS011;5063;50.878;4.742;2023-08-21T10:00:32;4.28;;;1.77;;
10045;SDS011;5063;50.878;4.742;2023-08-21T10:03:03;6.32;;;2.13;;
10045;SDS011;5063;50.878;4.742;2023-08-21T10:05:32;2.58;;;1.80;;
10045;SDS011;5063;50.878;4.742;2023-08-21T10:08:03;6.80;;;2.05;;
10045;SDS011;5063;50.878;4.742;2023-08-21T10:10:30;4.70;;;1.67;;
10045;SDS011;5063;50.878;4.742;2023-08-21T10:12:58;4.60;;;1.95;;
10045;SDS011;5063;50.878;4.742;2023-08-21T10:15:25;4.53;;;1.92;;
10045;SDS011;5063;50.878;4.742;2023-08-21T10:17:54;5.10;;;1.90;;
10045;SDS011;5063;50.878;4.742;2023-08-21T10:20:20;7.75;;;1.85;;
10045;SDS011;5063;50.878;4.742;2023-08-21T10:22:52;6.82;;;2.17;;
10045;SDS011;5063;50.878;4.742;2023-08-21T10:25:20;4.22;;;1.83;;
10045;SDS011;5063;50.878;4.742;2023-08-21T10:27:55;5.28;;;2.00;;
10045;SDS011;5063;50.878;4.742;2023-08-21T10:30:26;3.00;;;1.55;;
10045;SDS011;5063;50.878;4.742;2023-08-21T10:32:53;5.43;;;1.95;;
10045;SDS011;5063;50.878;4.742;2023-08-21T10:35:24;5.32;;;1.60;;
10045;SDS011;5063;50.878;4.742;2023-08-21T10:38:12;3.78;;;1.42;;
10045;SDS011;5063;50.878;4.742;2023-08-21T10:40:40;3.83;;;1.50;;
10045;SDS011;5063;50.878;4.742;2023-08-21T10:43:36;5.72;;;2.15;;
10045;SDS011;5063;50.878;4.742;2023-08-21T10:46:03;4.85;;;1.70;;
10045;SDS011;5063;50.878;4.742;2023-08-21T10:48:29;3.10;;;1.63;;
10045;SDS011;5063;50.878;4.742;2023-08-21T10:50:54;3.30;;;1.67;;
10045;SDS011;5063;50.878;4.742;2023-08-21T10:53:21;3.88;;;1.88;;
10045;SDS011;5063;50.878;4.742;2023-08-21T10:55:52;4.88;;;1.88;;
10045;SDS011;5063;50.878;4.742;2023-08-21T10:58:21;4.60;;;1.65;;
10045;SDS011;5063;50.878;4.742;2023-08-21T11:00:47;1.98;;;1.30;;
10045;SDS011;5063;50.878;4.742;2023-08-21T11:03:22;2.85;;;1.50;;
10045;SDS011;5063;50.878;4.742;2023-08-21T11:06:01;5.95;;;1.50;;
10045;SDS011;5063;50.878;4.742;2023-08-21T11:08:31;3.42;;;1.85;;
10045;SDS011;5063;50.878;4.742;2023-08-21T11:10:58;6.18;;;1.80;;
10045;SDS011;5063;50.878;4.742;2023-08-21T11:13:24;5.13;;;1.65;;
10045;SDS011;5063;50.878;4.742;2023-08-21T11:15:57;6.45;;;1.90;;
10045;SDS011;5063;50.878;4.742;2023-08-21T11:18:34;4.38;;;1.63;;
10045;SDS011;5063;50.878;4.742;2023-08-21T11:21:10;5.85;;;1.63;;
10045;SDS011;5063;50.878;4.742;2023-08-21T11:23:37;3.28;;;1.70;;
10045;SDS011;5063;50.878;4.742;2023-08-21T11:26:04;8.93;;;1.88;;
10045;SDS011;5063;50.878;4.742;2023-08-21T11:28:31;1.50;;;1.38;;
10045;SDS011;5063;50.878;4.742;2023-08-21T11:30:57;5.72;;;1.63;;
10045;SDS011;5063;50.878;4.742;2023-08-21T11:33:24;6.38;;;1.63;;
10045;SDS011;5063;50.878;4.742;2023-08-21T11:35:51;5.45;;;1.90;;
10045;SDS011;5063;50.878;4.742;2023-08-21T11:38:22;3.60;;;1.58;;
10045;SDS011;5063;50.878;4.742;2023-08-21T11:40:56;5.78;;;1.50;;
10045;SDS011;5063;50.878;4.742;2023-08-21T11:46:05;3.95;;;1.42;;
10045;SDS011;5063;50.878;4.742;2023-08-21T11:48:32;3.15;;;1.90;;
10045;SDS011;5063;50.878;4.742;2023-08-21T11:51:00;4.97;;;1.42;;
10045;SDS011;5063;50.878;4.742;2023-08-21T11:53:44;3.05;;;1.52;;
10045;SDS011;5063;50.878;4.742;2023-08-21T11:56:15;3.40;;;1.50;;
10045;SDS011;5063;50.878;4.742;2023-08-21T11:58:42;2.92;;;1.30;;
10045;SDS011;5063;50.878;4.742;2023-08-21T12:01:18;6.85;;;1.50;;
10045;SDS011;5063;50.878;4.742;2023-08-21T12:03:44;3.25;;;1.70;;
10045;SDS011;5063;50.878;4.742;2023-08-21T12:06:11;6.70;;;1.83;;
10045;SDS011;5063;50.878;4.742;2023-08-21T12:08:38;3.63;;;1.52;;
10045;SDS011;5063;50.878;4.742;2023-08-21T12:11:04;1.52;;;1.35;;
10045;SDS011;5063;50.878;4.742;2023-08-21T12:13:31;2.00;;;1.40;;
10045;SDS011;5063;50.878;4.742;2023-08-21T12:15:56;5.18;;;1.70;;
10045;SDS011;5063;50.878;4.742;2023-08-21T12:18:22;4.80;;;1.90;;
10045;SDS011;5063;50.878;4.742;2023-08-21T12:20:48;4.07;;;1.73;;
10045;SDS011;5063;50.878;4.742;2023-08-21T12:23:14;5.57;;;1.75;;
10045;SDS011;5063;50.878;4.742;2023-08-21T12:25:40;4.05;;;1.45;;
10045;SDS011;5063;50.878;4.742;2023-08-21T12:28:07;3.30;;;1.52;;
10045;SDS011;5063;50.878;4.742;2023-08-21T12:30:33;5.40;;;2.10;;
10045;SDS011;5063;50.878;4.742;2023-08-21T12:32:59;4.38;;;1.52;;
10045;SDS011;5063;50.878;4.742;2023-08-21T12:35:25;3.55;;;1.58;;
10045;SDS011;5063;50.878;4.742;2023-08-21T12:37:55;3.55;;;1.85;;
10045;SDS011;5063;50.878;4.742;2023-08-21T12:40:23;3.83;;;1.42;;
10045;SDS011;5063;50.878;4.742;2023-08-21T12:42:49;2.90;;;1.92;;
10045;SDS011;5063;50.878;4.742;2023-08-21T12:45:15;3.83;;;2.08;;
10045;SDS011;5063;50.878;4.742;2023-08-21T12:47:42;4.10;;;1.80;;
10045;SDS011;5063;50.878;4.742;2023-08-21T12:50:08;3.60;;;1.52;;
10045;SDS011;5063;50.878;4.742;2023-08-21T12:52:34;4.18;;;1.83;;
10045;SDS011;5063;50.878;4.742;2023-08-21T12:54:59;4.35;;;1.90;;
10045;SDS011;5063;50.878;4.742;2023-08-21T12:57:28;4.28;;;1.50;;
10045;SDS011;5063;50.878;4.742;2023-08-21T12:59:54;4.55;;;1.55;;
10045;SDS011;5063;50.878;4.742;2023-08-21T13:02:20;4.65;;;1.55;;
10045;SDS011;5063;50.878;4.742;2023-08-21T13:04:48;3.20;;;2.00;;
10045;SDS011;5063;50.878;4.742;2023-08-21T13:07:14;3.03;;;1.65;;
10045;SDS011;5063;50.878;4.742;2023-08-21T13:09:40;2.53;;;1.75;;
10045;SDS011;5063;50.878;4.742;2023-08-21T13:12:05;6.10;;;1.80;;
10045;SDS011;5063;50.878;4.742;2023-08-21T13:14:33;2.40;;;1.40;;
10045;SDS011;5063;50.878;4.742;2023-08-21T13:16:59;1.60;;;1.40;;
10045;SDS011;5063;50.878;4.742;2023-08-21T13:19:24;4.90;;;1.70;;
10045;SDS011;5063;50.878;4.742;2023-08-21T13:21:50;2.35;;;1.67;;
10045;SDS011;5063;50.878;4.742;2023-08-21T13:24:16;4.60;;;1.48;;
10045;SDS011;5063;50.878;4.742;2023-08-21T13:26:42;3.55;;;1.30;;
10045;SDS011;5063;50.878;4.742;2023-08-21T13:29:08;3.85;;;2.00;;
10045;SDS011;5063;50.878;4.742;2023-08-21T13:31:34;6.28;;;1.95;;
10045;SDS011;5063;50.878;4.742;2023-08-21T13:34:00;2.47;;;1.88;;
10045;SDS011;5063;50.878;4.742;2023-08-21T13:36:26;3.05;;;1.60;;
10045;SDS011;5063;50.878;4.742;2023-08-21T13:38:52;2.90;;;1.50;;
10045;SDS011;5063;50.878;4.742;2023-08-21T13:41:18;2.70;;;1.52;;
10045;SDS011;5063;50.878;4.742;2023-08-21T13:43:44;9.82;;;2.92;;
10045;SDS011;5063;50.878;4.742;2023-08-21T13:46:10;4.15;;;1.70;;
10045;SDS011;5063;50.878;4.742;2023-08-21T13:48:35;4.18;;;2.40;;
10045;SDS011;5063;50.878;4.742;2023-08-21T13:51:01;5.47;;;1.88;;
10045;SDS011;5063;50.878;4.742;2023-08-21T13:53:27;3.67;;;1.55;;
10045;SDS011;5063;50.878;4.742;2023-08-21T13:55:52;4.75;;;1.75;;
10045;SDS011;5063;50.878;4.742;2023-08-21T13:58:18;4.53;;;1.90;;
10045;SDS011;5063;50.878;4.742;2023-08-21T14:00:46;5.15;;;1.80;;
10045;SDS011;5063;50.878;4.742;2023-08-21T14:03:11;2.15;;;1.70;;
10045;SDS011;5063;50.878;4.742;2023-08-21T14:05:37;6.25;;;1.95;;
10045;SDS011;5063;50.878;4.742;2023-08-21T14:08:03;3.92;;;1.80;;
10045;SDS011;5063;50.878;4.742;2023-08-21T14:10:29;4.63;;;1.90;;
10045;SDS011;5063;50.878;4.742;2023-08-21T14:12:55;4.55;;;2.05;;
10045;SDS011;5063;50.878;4.742;2023-08-21T14:15:22;4.65;;;2.08;;
10045;SDS011;5063;50.878;4.742;2023-08-21T14:17:48;4.35;;;1.70;;
10045;SDS011;5063;50.878;4.742;2023-08-21T14:20:14;3.45;;;1.73;;
10045;SDS011;5063;50.878;4.742;2023-08-21T14:22:40;3.75;;;2.05;;
10045;SDS011;5063;50.878;4.742;2023-08-21T14:25:07;3.72;;;1.70;;
10045;SDS011;5063;50.878;4.742;2023-08-21T14:27:33;3.83;;;1.77;;
10045;SDS011;5063;50.878;4.742;2023-08-21T14:29:59;4.72;;;1.73;;
10045;SDS011;5063;50.878;4.742;2023-08-21T14:32:25;3.85;;;1.92;;
10045;SDS011;5063;50.878;4.742;2023-08-21T14:34:51;2.40;;;1.55;;
10045;SDS011;5063;50.878;4.742;2023-08-21T14:37:18;4.40;;;1.92;;
10045;SDS011;5063;50.878;4.742;2023-08-21T14:39:46;5.03;;;2.25;;
10045;SDS011;5063;50.878;4.742;2023-08-21T14:42:12;4.43;;;1.83;;
10045;SDS011;5063;50.878;4.742;2023-08-21T14:44:38;3.63;;;1.85;;
10045;SDS011;5063;50.878;4.742;2023-08-21T14:47:04;4.32;;;2.03;;
10045;SDS011;5063;50.878;4.742;2023-08-21T14:49:29;3.17;;;1.60;;
10045;SDS011;5063;50.878;4.742;2023-08-21T14:51:55;2.58;;;1.80;;
10045;SDS011;5063;50.878;4.742;2023-08-21T14:54:21;6.70;;;2.15;;
10045;SDS011;5063;50.878;4.742;2023-08-21T14:56:47;10.82;;;2.13;;
10045;SDS011;5063;50.878;4.742;2023-08-21T14:59:13;4.40;;;1.90;;
10045;SDS011;5063;50.878;4.742;2023-08-21T15:01:39;3.15;;;1.85;;
10045;SDS011;5063;50.878;4.742;2023-08-21T15:04:06;4.75;;;1.73;;
10045;SDS011;5063;50.878;4.742;2023-08-21T15:06:32;3.95;;;1.85;;
10045;SDS011;5063;50.878;4.742;2023-08-21T15:08:58;3.33;;;1.77;;